createdAt,value
2023-03-17T00:02:08.400Z,0.50
2023-03-17T00:04:36.772Z,0.43
2023-03-17T00:07:06.395Z,0.50
2023-03-17T00:09:34.535Z,0.50
2023-03-17T00:12:07.189Z,0.47
2023-03-17T00:14:36.295Z,0.50
2023-03-17T00:17:04.707Z,0.50
2023-03-17T00:19:36.387Z,0.50
2023-03-17T00:22:06.620Z,0.32
2023-03-17T00:24:34.810Z,0.50
2023-03-17T00:27:10.089Z,0.45
2023-03-17T00:29:38.242Z,0.40
2023-03-17T00:32:06.692Z,0.40
2023-03-17T00:34:35.199Z,0.40
2023-03-17T00:37:04.284Z,0.45
2023-03-17T00:39:32.438Z,0.30
2023-03-17T00:42:00.630Z,0.40
2023-03-17T00:44:30.244Z,0.40
2023-03-17T00:46:58.634Z,0.50
2023-03-17T00:49:27.903Z,0.40
2023-03-17T00:51:56.211Z,0.40
2023-03-17T00:54:24.475Z,0.40
2023-03-17T00:56:53.271Z,0.50
2023-03-17T00:59:26.149Z,0.43
2023-03-17T01:01:56.517Z,0.50
2023-03-17T01:04:24.851Z,0.30
2023-03-17T01:06:54.078Z,0.55
2023-03-17T01:09:26.976Z,0.38
2023-03-17T01:11:55.688Z,0.50
2023-03-17T01:14:24.852Z,0.40
2023-03-17T01:16:55.399Z,0.40
2023-03-17T01:19:23.792Z,0.40
2023-03-17T01:21:52.389Z,0.60
2023-03-17T01:24:21.118Z,0.32
2023-03-17T01:26:49.265Z,0.50
2023-03-17T01:29:17.618Z,0.50
2023-03-17T01:31:46.296Z,0.40
2023-03-17T01:34:15.919Z,0.40
2023-03-17T01:36:44.066Z,0.52
2023-03-17T01:39:12.957Z,0.50
2023-03-17T01:41:41.345Z,0.50
2023-03-17T01:44:16.894Z,0.50
2023-03-17T01:46:45.521Z,0.30
2023-03-17T01:49:21.138Z,0.30
2023-03-17T01:51:58.778Z,0.40
2023-03-17T01:54:31.684Z,0.40
2023-03-17T01:57:04.987Z,0.47
2023-03-17T01:59:37.876Z,0.50
2023-03-17T02:02:10.852Z,0.45
2023-03-17T02:04:41.322Z,0.40
2023-03-17T02:07:10.185Z,0.52
2023-03-17T02:09:38.854Z,0.40
2023-03-17T02:12:09.257Z,0.50
2023-03-17T02:14:37.625Z,0.47
2023-03-17T02:17:05.874Z,0.40
2023-03-17T02:19:34.270Z,0.40
2023-03-17T02:22:04.153Z,0.40
2023-03-17T02:24:37.231Z,0.40
2023-03-17T02:27:09.456Z,0.40
2023-03-17T02:29:38.092Z,0.40
2023-03-17T02:32:06.979Z,0.32
2023-03-17T02:34:35.826Z,0.40
2023-03-17T02:37:05.805Z,0.30
2023-03-17T02:42:02.018Z,0.50
2023-03-17T02:44:30.212Z,0.45
2023-03-17T02:46:58.618Z,0.30
2023-03-17T02:49:27.290Z,0.43
2023-03-17T02:51:56.063Z,0.40
2023-03-17T02:54:25.647Z,0.30
2023-03-17T02:56:53.812Z,0.40
2023-03-17T02:59:22.265Z,0.28
2023-03-17T03:01:50.996Z,0.40
2023-03-17T03:04:19.965Z,0.40
2023-03-17T03:06:48.761Z,0.30
2023-03-17T03:09:17.837Z,0.40
2023-03-17T03:11:48.210Z,0.30
2023-03-17T03:14:16.699Z,0.40
2023-03-17T03:16:44.931Z,0.30
2023-03-17T03:19:13.091Z,0.40
2023-03-17T03:21:41.546Z,0.50
2023-03-17T03:24:09.894Z,0.32
2023-03-17T03:26:38.419Z,0.40
2023-03-17T03:29:07.965Z,0.40
2023-03-17T03:31:36.231Z,0.40
2023-03-17T03:34:04.426Z,0.30
2023-03-17T03:36:33.489Z,0.50
2023-03-17T03:39:02.182Z,0.40
2023-03-17T03:41:30.371Z,0.40
2023-03-17T03:43:58.545Z,0.40
2023-03-17T03:46:28.353Z,0.43
2023-03-17T03:48:56.625Z,0.63
2023-03-17T03:51:24.845Z,0.38
2023-03-17T03:53:53.061Z,0.28
2023-03-17T03:56:21.688Z,0.30
2023-03-17T03:58:49.848Z,0.20
2023-03-17T04:01:18.191Z,0.30
2023-03-17T04:03:48.102Z,0.35
2023-03-17T04:08:44.592Z,0.40
2023-03-17T04:11:12.832Z,0.30
2023-03-17T04:13:41.095Z,0.30
2023-03-17T04:16:09.872Z,0.35
2023-03-17T04:18:38.106Z,0.40
2023-03-17T04:21:08.390Z,0.30
2023-03-17T04:23:36.652Z,0.43
2023-03-17T04:26:05.339Z,0.40
2023-03-17T04:28:33.780Z,0.50
2023-03-17T04:31:01.994Z,0.40
2023-03-17T04:33:30.216Z,0.40
2023-03-17T04:35:58.647Z,0.30
2023-03-17T04:38:28.269Z,0.38
2023-03-17T04:40:56.441Z,0.30
2023-03-17T04:43:24.655Z,0.40
2023-03-17T04:45:53.370Z,0.40
2023-03-17T04:48:21.658Z,0.50
2023-03-17T04:50:50.017Z,0.40
2023-03-17T04:53:18.223Z,0.30
2023-03-17T04:55:48.111Z,0.32
2023-03-17T04:58:29.961Z,0.20
2023-03-17T05:00:59.568Z,0.35
2023-03-17T05:03:28.695Z,0.40
2023-03-17T05:05:57.405Z,0.30
2023-03-17T05:08:26.397Z,0.40
2023-03-17T05:10:56.268Z,0.30
2023-03-17T05:15:55.038Z,0.65
2023-03-17T05:18:26.006Z,0.30
2023-03-17T05:20:54.493Z,0.40
2023-03-17T05:23:23.428Z,0.30
2023-03-17T05:25:52.709Z,0.50
2023-03-17T05:28:22.718Z,0.20
2023-03-17T05:33:19.085Z,0.30
2023-03-17T05:35:47.764Z,0.22
2023-03-17T05:38:16.502Z,0.35
2023-03-17T05:40:44.848Z,0.35
2023-03-17T05:43:13.190Z,0.32
2023-03-17T05:45:43.117Z,0.40
2023-03-17T05:48:12.422Z,0.20
2023-03-17T05:50:41.771Z,0.30
2023-03-17T05:53:10.684Z,0.25
2023-03-17T05:55:38.911Z,0.20
2023-03-17T05:58:07.907Z,0.30
2023-03-17T06:00:36.483Z,0.30
2023-03-17T06:03:07.943Z,0.30
2023-03-17T06:05:36.787Z,0.30
2023-03-17T06:08:05.771Z,0.40
2023-03-17T06:10:34.579Z,0.25
2023-03-17T06:13:04.625Z,0.30
2023-03-17T06:15:34.413Z,0.40
2023-03-17T06:20:32.401Z,0.30
2023-03-17T06:23:04.974Z,0.25
2023-03-17T06:25:34.994Z,0.40
2023-03-17T06:28:03.909Z,0.30
2023-03-17T06:30:33.893Z,0.20
2023-03-17T06:33:02.637Z,0.30
2023-03-17T06:35:33.418Z,0.22
2023-03-17T06:38:02.359Z,0.30
2023-03-17T06:40:31.172Z,0.30
2023-03-17T06:42:59.580Z,0.73
2023-03-17T06:45:28.039Z,0.30
2023-03-17T06:47:57.090Z,0.30
2023-03-17T06:50:25.428Z,0.20
2023-03-17T06:52:55.079Z,0.40
2023-03-17T06:55:23.312Z,0.30
2023-03-17T06:57:51.570Z,0.30
2023-03-17T07:00:21.214Z,0.40
2023-03-17T07:02:49.582Z,0.20
2023-03-17T07:05:18.003Z,0.32
2023-03-17T07:07:46.487Z,0.45
2023-03-17T07:10:17.425Z,0.20
2023-03-17T07:12:46.466Z,0.25
2023-03-17T07:15:14.679Z,0.20
2023-03-17T07:17:43.001Z,0.30
2023-03-17T07:20:12.098Z,0.20
2023-03-17T07:22:40.344Z,0.20
2023-03-17T07:25:09.736Z,0.20
2023-03-17T07:27:39.557Z,0.20
2023-03-17T07:32:37.668Z,0.20
2023-03-17T07:35:06.318Z,0.30
2023-03-17T07:37:34.637Z,0.30
2023-03-17T07:40:03.150Z,0.30
2023-03-17T07:42:31.349Z,0.30
2023-03-17T07:45:01.236Z,0.25
2023-03-17T07:49:57.383Z,0.30
2023-03-17T07:52:25.589Z,0.10
2023-03-17T07:54:54.629Z,0.30
2023-03-17T07:57:23.261Z,0.20
2023-03-17T07:59:51.747Z,0.30
2023-03-17T08:02:21.596Z,0.20
2023-03-17T08:07:18.718Z,0.20
2023-03-17T08:09:47.326Z,0.20
2023-03-17T08:12:16.004Z,0.20
2023-03-17T08:14:44.233Z,0.20
2023-03-17T08:17:13.631Z,0.20
2023-03-17T08:19:43.739Z,0.20
2023-03-17T08:22:12.468Z,0.20
2023-03-17T08:24:43.026Z,0.20
2023-03-17T08:27:11.440Z,0.20
2023-03-17T08:29:39.727Z,0.20
2023-03-17T08:32:08.796Z,0.22
2023-03-17T08:34:37.415Z,0.20
2023-03-17T08:37:11.290Z,0.20
2023-03-17T08:39:40.403Z,0.20
2023-03-17T08:42:08.676Z,0.22
2023-03-17T08:44:37.317Z,0.17
2023-03-17T08:47:06.155Z,0.13
2023-03-17T08:49:36.643Z,0.10
2023-03-17T08:52:06.377Z,0.20
2023-03-17T08:54:35.874Z,0.20
2023-03-17T08:59:32.855Z,0.20
2023-03-17T09:02:01.426Z,0.20
2023-03-17T09:04:29.631Z,0.20
2023-03-17T09:07:06.161Z,0.10
2023-03-17T09:09:36.614Z,0.20
2023-03-17T09:14:42.922Z,0.20
2023-03-17T09:17:11.972Z,0.20
2023-03-17T09:19:40.529Z,0.20
2023-03-17T09:22:09.027Z,0.20
2023-03-17T09:24:38.577Z,0.15
2023-03-17T09:29:35.728Z,0.20
2023-03-17T09:32:03.926Z,0.17
2023-03-17T09:34:32.781Z,0.20
2023-03-17T09:37:00.990Z,0.20
2023-03-17T09:39:29.299Z,0.20
2023-03-17T09:42:13.498Z,0.20
2023-03-17T09:45:05.560Z,0.15
2023-03-17T09:47:57.426Z,0.10
2023-03-17T09:50:28.122Z,0.10
2023-03-17T09:52:58.475Z,0.10
2023-03-17T09:55:30.235Z,0.20
2023-03-17T09:58:01.114Z,0.17
2023-03-17T10:00:31.299Z,0.20
2023-03-17T10:03:01.586Z,0.20
2023-03-17T10:05:31.525Z,0.10
2023-03-17T10:08:19.048Z,0.20
2023-03-17T10:11:02.221Z,0.20
2023-03-17T10:13:42.997Z,0.20
2023-03-17T10:16:15.696Z,0.10
2023-03-17T10:18:50.199Z,0.20
2023-03-17T10:21:24.334Z,0.10
2023-03-17T10:23:54.368Z,0.10
2023-03-17T10:26:29.506Z,0.20
2023-03-17T10:28:59.835Z,0.10
2023-03-17T10:31:34.752Z,0.20
2023-03-17T10:34:14.375Z,0.10
2023-03-17T10:36:45.990Z,0.17
2023-03-17T10:39:18.619Z,0.10
2023-03-17T10:41:55.647Z,0.20
2023-03-17T10:44:43.226Z,0.10
2023-03-17T10:47:36.052Z,0.10
2023-03-17T10:50:19.390Z,0.10
2023-03-17T10:52:49.201Z,0.20
2023-03-17T10:55:21.449Z,0.10
2023-03-17T10:57:53.906Z,0.10
2023-03-17T11:00:24.674Z,0.10
2023-03-17T11:02:57.512Z,0.20
2023-03-17T11:05:27.693Z,0.10
2023-03-17T11:08:00.008Z,0.10
2023-03-17T11:10:30.258Z,0.20
2023-03-17T11:13:03.483Z,0.20
2023-03-17T11:15:35.725Z,0.10
2023-03-17T11:18:07.817Z,0.10
2023-03-17T11:20:51.472Z,0.10
2023-03-17T11:23:39.624Z,0.20
2023-03-17T11:26:17.731Z,0.15
2023-03-17T11:28:51.714Z,0.10
2023-03-17T11:31:29.101Z,0.10
2023-03-17T11:34:07.013Z,0.13
2023-03-17T11:36:47.153Z,0.13
2023-03-17T11:39:18.835Z,0.10
2023-03-17T11:42:07.023Z,0.17
2023-03-17T11:45:10.265Z,0.10
2023-03-17T11:47:51.338Z,0.10
2023-03-17T11:50:27.923Z,0.10
2023-03-17T11:53:15.281Z,0.15
2023-03-17T11:55:47.067Z,0.15
2023-03-17T11:58:25.057Z,0.10
2023-03-17T12:00:57.159Z,0.10
2023-03-17T12:03:33.072Z,0.00
2023-03-17T12:06:06.632Z,0.10
2023-03-17T12:08:42.382Z,0.10
2023-03-17T12:11:14.824Z,0.20
2023-03-17T12:13:46.680Z,0.20
2023-03-17T12:16:19.312Z,0.10
2023-03-17T12:19:08.436Z,0.10
2023-03-17T12:21:43.127Z,0.10
2023-03-17T12:24:17.314Z,0.10
2023-03-17T12:26:51.545Z,0.10
2023-03-17T12:29:26.437Z,0.10
2023-03-17T12:32:01.288Z,0.13
2023-03-17T12:34:39.776Z,0.13
2023-03-17T12:37:09.786Z,0.20
2023-03-17T12:39:40.545Z,0.10
2023-03-17T12:42:25.384Z,0.20
2023-03-17T12:45:19.807Z,0.10
2023-03-17T12:48:04.619Z,0.15
2023-03-17T12:51:06.502Z,0.13
2023-03-17T12:53:37.741Z,0.10
2023-03-17T12:56:13.157Z,0.20
2023-03-17T12:58:45.302Z,0.10
2023-03-17T13:01:24.494Z,0.10
2023-03-17T13:04:14.581Z,0.10
2023-03-17T13:06:46.641Z,0.20
2023-03-17T13:09:48.788Z,0.20
2023-03-17T13:12:52.958Z,0.10
2023-03-17T13:15:30.871Z,0.13
2023-03-17T13:18:36.322Z,0.10
2023-03-17T13:21:13.802Z,0.10
2023-03-17T13:23:46.336Z,0.22
2023-03-17T13:26:16.692Z,0.10
2023-03-17T13:28:48.738Z,0.10
2023-03-17T13:31:33.948Z,0.10
2023-03-17T13:34:15.484Z,0.20
2023-03-17T13:36:56.005Z,0.20
2023-03-17T13:39:57.271Z,0.10
2023-03-17T13:42:38.774Z,0.30
2023-03-17T13:45:17.866Z,0.10
2023-03-17T13:47:47.216Z,0.20
2023-03-17T13:50:17.640Z,0.10
2023-03-17T13:52:50.386Z,0.17
2023-03-17T13:55:38.086Z,0.20
2023-03-17T13:58:33.338Z,0.10
2023-03-17T14:01:06.720Z,0.10
2023-03-17T14:03:48.882Z,0.20
2023-03-17T14:06:19.603Z,0.20
2023-03-17T14:08:50.397Z,0.10
2023-03-17T14:11:25.958Z,0.20
2023-03-17T14:14:15.134Z,0.10
2023-03-17T14:16:56.404Z,0.20
2023-03-17T14:19:28.188Z,0.20
2023-03-17T14:21:56.762Z,0.10
2023-03-17T14:24:26.566Z,0.20
2023-03-17T14:26:56.275Z,0.10
2023-03-17T14:29:31.121Z,0.20
2023-03-17T14:32:05.257Z,0.10
2023-03-17T14:34:34.140Z,0.10
2023-03-17T14:37:03.578Z,0.20
2023-03-17T14:39:31.903Z,0.13
2023-03-17T14:42:03.786Z,0.20
2023-03-17T14:44:39.328Z,0.15
2023-03-17T14:47:14.199Z,0.10
2023-03-17T14:49:42.520Z,0.20
2023-03-17T14:52:20.442Z,0.20
2023-03-17T14:54:52.678Z,0.10
2023-03-17T14:57:27.040Z,0.20
2023-03-17T15:00:00.628Z,0.20
2023-03-17T15:02:34.447Z,0.20
2023-03-17T15:05:08.069Z,0.20
2023-03-17T15:07:40.697Z,0.20
2023-03-17T15:10:17.090Z,0.30
2023-03-17T15:12:48.460Z,0.20
2023-03-17T15:15:24.024Z,0.20
2023-03-17T15:17:53.296Z,0.20
2023-03-17T15:22:57.088Z,0.20
2023-03-17T15:25:29.024Z,0.20
2023-03-17T15:27:59.004Z,0.10
2023-03-17T15:30:37.508Z,0.10
2023-03-17T15:33:21.131Z,0.20
2023-03-17T15:35:49.426Z,0.20
2023-03-17T15:38:17.702Z,0.20
2023-03-17T15:40:46.214Z,0.20
2023-03-17T15:43:17.693Z,0.13
2023-03-17T15:45:47.404Z,0.20
2023-03-17T15:48:22.410Z,0.30
2023-03-17T15:50:52.210Z,0.20
2023-03-17T15:53:20.787Z,0.20
2023-03-17T15:55:49.539Z,0.27
2023-03-17T15:58:19.087Z,0.20
2023-03-17T16:00:51.476Z,0.10
2023-03-17T16:03:23.133Z,0.22
2023-03-17T16:05:51.548Z,0.20
2023-03-17T16:08:19.726Z,0.20
2023-03-17T16:10:47.935Z,0.20
2023-03-17T16:13:16.105Z,0.30
2023-03-17T16:15:56.677Z,0.20
2023-03-17T16:18:32.081Z,0.10
2023-03-17T16:21:01.005Z,0.20
2023-03-17T16:23:31.771Z,0.20
2023-03-17T16:26:13.672Z,0.13
2023-03-17T16:28:44.594Z,0.20
2023-03-17T16:31:23.930Z,0.20
2023-03-17T16:36:23.447Z,0.20
2023-03-17T16:38:52.141Z,0.20
2023-03-17T16:41:22.986Z,0.20
2023-03-17T16:43:53.762Z,0.20
2023-03-17T16:46:24.362Z,0.30
2023-03-17T16:48:52.822Z,0.30
2023-03-17T16:51:21.281Z,0.20
2023-03-17T16:53:49.469Z,0.17
2023-03-17T16:56:21.507Z,0.20
2023-03-17T16:58:49.940Z,0.20
2023-03-17T17:01:21.013Z,0.30
2023-03-17T17:03:51.208Z,0.20
2023-03-17T17:06:20.738Z,0.30
2023-03-17T17:08:49.929Z,0.30
2023-03-17T17:11:19.931Z,0.20
2023-03-17T17:13:49.707Z,0.20
2023-03-17T17:16:22.967Z,0.20
2023-03-17T17:18:52.600Z,0.20
2023-03-17T17:21:21.251Z,0.20
2023-03-17T17:23:52.334Z,0.20
2023-03-17T17:26:21.237Z,0.20
2023-03-17T17:28:49.718Z,0.30
2023-03-17T17:31:18.083Z,0.20
2023-03-17T17:33:46.294Z,0.20
2023-03-17T17:36:18.369Z,0.20
2023-03-17T17:38:46.543Z,0.20
2023-03-17T17:41:17.032Z,0.22
2023-03-17T17:43:46.242Z,0.30
2023-03-17T17:46:17.027Z,0.28
2023-03-17T17:48:45.574Z,0.30
2023-03-17T17:51:15.596Z,0.50
2023-03-17T17:53:43.752Z,0.30
2023-03-17T17:56:15.990Z,0.40
2023-03-17T17:58:44.815Z,0.20
2023-03-17T18:01:14.324Z,0.20
2023-03-17T18:06:13.094Z,0.20
2023-03-17T18:08:43.601Z,0.30
2023-03-17T18:11:12.220Z,0.30
2023-03-17T18:13:41.095Z,0.30
2023-03-17T18:16:10.827Z,0.20
2023-03-17T18:18:42.370Z,0.30
2023-03-17T18:21:11.624Z,0.30
2023-03-17T18:23:46.755Z,0.30
2023-03-17T18:26:17.843Z,0.40
2023-03-17T18:28:47.540Z,0.30
2023-03-17T18:31:18.046Z,0.40
2023-03-17T18:33:48.513Z,0.22
2023-03-17T18:36:16.679Z,0.25
2023-03-17T18:38:44.908Z,0.30
2023-03-17T18:41:13.220Z,0.20
2023-03-17T18:43:44.835Z,0.40
2023-03-17T18:46:13.946Z,0.30
2023-03-17T18:48:42.184Z,0.30
2023-03-17T18:51:10.542Z,0.30
2023-03-17T18:53:39.284Z,0.30
2023-03-17T18:56:08.118Z,0.27
2023-03-17T18:58:36.436Z,0.30
2023-03-17T19:01:06.328Z,0.30
2023-03-17T19:03:35.174Z,0.30
2023-03-17T19:06:10.023Z,0.30
2023-03-17T19:08:38.264Z,0.30
2023-03-17T19:11:07.754Z,0.20
2023-03-17T19:13:36.443Z,0.20
2023-03-17T19:16:07.548Z,0.40
2023-03-17T19:18:36.849Z,0.30
2023-03-17T19:21:05.319Z,0.32
2023-03-17T19:23:33.901Z,0.40
2023-03-17T19:26:02.059Z,0.38
2023-03-17T19:28:30.372Z,0.30
2023-03-17T19:30:58.819Z,0.28
2023-03-17T19:33:28.957Z,0.52
2023-03-17T19:35:59.975Z,0.30
2023-03-17T19:38:28.724Z,0.40
2023-03-17T19:40:56.949Z,0.35
2023-03-17T19:43:39.504Z,0.30
2023-03-17T19:46:08.926Z,0.32
2023-03-17T19:48:38.506Z,0.30
2023-03-17T19:53:35.262Z,0.35
2023-03-17T19:56:04.290Z,0.30
2023-03-17T19:58:32.473Z,0.32
2023-03-17T20:01:00.625Z,0.50
2023-03-17T20:03:29.011Z,0.30
2023-03-17T20:05:58.728Z,0.30
2023-03-17T20:08:26.964Z,0.30
2023-03-17T20:10:55.713Z,0.30
2023-03-17T20:13:23.924Z,0.30
2023-03-17T20:15:52.957Z,0.65
2023-03-17T20:18:23.134Z,0.30
2023-03-17T20:20:54.129Z,0.20
2023-03-17T20:23:23.685Z,0.50
2023-03-17T20:28:22.159Z,0.40
2023-03-17T20:30:51.297Z,0.22
2023-03-17T20:33:19.510Z,0.30
2023-03-17T20:35:48.123Z,0.30
2023-03-17T20:38:16.444Z,0.20
2023-03-17T20:40:46.008Z,0.50
2023-03-17T20:45:42.395Z,0.28
2023-03-17T20:48:11.199Z,0.40
2023-03-17T20:50:41.046Z,0.30
2023-03-17T20:53:09.282Z,0.28
2023-03-17T20:55:37.612Z,0.40
2023-03-17T20:58:07.166Z,0.20
2023-03-17T21:00:35.561Z,0.30
2023-03-17T21:03:03.923Z,0.40
2023-03-17T21:05:32.793Z,0.38
2023-03-17T21:08:01.197Z,0.30
2023-03-17T21:10:29.551Z,0.32
2023-03-17T21:12:57.947Z,0.38
2023-03-17T21:15:27.908Z,0.28
2023-03-17T21:17:56.331Z,0.40
2023-03-17T21:20:26.186Z,0.22
2023-03-17T21:22:54.398Z,0.30
2023-03-17T21:25:22.689Z,0.30
2023-03-17T21:27:51.070Z,0.38
2023-03-17T21:30:19.451Z,0.50
2023-03-17T21:32:49.226Z,0.60
2023-03-17T21:35:18.216Z,0.40
2023-03-17T21:37:46.367Z,0.55
2023-03-17T21:40:15.780Z,0.38
2023-03-17T21:42:44.241Z,0.28
2023-03-17T21:45:12.683Z,0.50
2023-03-17T21:47:41.303Z,0.40
2023-03-17T21:50:11.693Z,0.30
2023-03-17T21:52:39.899Z,0.40
2023-03-17T21:55:09.454Z,0.40
2023-03-17T21:57:37.635Z,0.43
2023-03-17T22:00:07.966Z,0.40
2023-03-17T22:02:36.528Z,0.30
2023-03-17T22:05:04.973Z,0.30
2023-03-17T22:07:34.566Z,0.40
2023-03-17T22:10:06.264Z,0.30
2023-03-17T22:12:35.045Z,0.32
2023-03-17T22:15:03.958Z,0.30
2023-03-17T22:17:32.600Z,0.20
2023-03-17T22:20:00.764Z,0.43
2023-03-17T22:22:30.000Z,0.40
2023-03-17T22:25:00.388Z,0.30
2023-03-17T22:27:28.564Z,0.30
2023-03-17T22:29:56.723Z,0.20
2023-03-17T22:32:24.992Z,0.30
2023-03-17T22:34:53.132Z,0.25
2023-03-17T22:37:21.376Z,0.52
2023-03-17T22:39:49.624Z,0.40
2023-03-17T22:42:19.198Z,0.32
2023-03-17T22:44:47.359Z,0.30
2023-03-17T22:47:15.562Z,0.40
2023-03-17T22:49:43.703Z,0.38
2023-03-17T22:52:12.056Z,0.40
2023-03-17T22:54:40.228Z,0.35
2023-03-17T22:57:08.500Z,0.22
2023-03-17T22:59:38.043Z,0.30
2023-03-17T23:02:08.704Z,0.20
2023-03-17T23:04:36.942Z,0.40
2023-03-17T23:07:05.462Z,0.40
2023-03-17T23:09:33.749Z,0.35
2023-03-17T23:12:02.576Z,0.52
2023-03-17T23:14:30.754Z,0.40
2023-03-17T23:17:00.481Z,0.40
2023-03-17T23:21:57.009Z,0.40
2023-03-17T23:24:25.373Z,0.50
2023-03-17T23:26:53.962Z,0.38
2023-03-17T23:29:22.804Z,0.40
2023-03-17T23:31:51.031Z,0.40
2023-03-17T23:34:20.567Z,0.45
2023-03-17T23:36:48.750Z,0.40
2023-03-17T23:39:16.876Z,0.30
2023-03-17T23:41:45.145Z,0.30
2023-03-17T23:44:14.332Z,0.30
2023-03-17T23:46:43.544Z,0.40
2023-03-17T23:49:12.218Z,0.43
2023-03-17T23:51:41.950Z,0.47
2023-03-17T23:56:38.813Z,0.50
2023-03-17T23:59:08.107Z,0.40
